createdAt,value
2023-04-20T15:41:57.961Z,13.37
2023-04-20T15:47:26.586Z,18.90
2023-04-20T15:52:55.108Z,14.82
2023-04-20T15:58:23.419Z,14.98
2023-04-20T16:03:52.023Z,14.15
2023-04-20T16:09:20.759Z,16.88
2023-04-20T16:14:49.833Z,23.20
2023-04-20T16:20:18.780Z,15.27
2023-04-20T16:25:46.823Z,22.10
2023-04-20T16:31:14.663Z,19.70
2023-04-20T16:36:43.520Z,20.90
2023-04-20T16:42:10.610Z,17.52
2023-04-20T16:47:37.875Z,16.33
2023-04-20T16:53:05.708Z,23.80
2023-04-20T16:58:36.645Z,15.75
2023-04-20T17:04:21.395Z,23.50
2023-04-20T17:10:00.308Z,18.92
2023-04-20T17:16:20.792Z,27.80
2023-04-20T17:21:48.498Z,17.35
2023-04-20T17:27:16.333Z,20.42
2023-04-20T17:32:44.585Z,17.08
2023-04-20T17:38:11.641Z,20.25
2023-04-20T17:43:40.698Z,19.40
2023-04-20T17:49:07.851Z,26.25
2023-04-20T17:54:35.872Z,28.05
2023-04-20T18:00:04.051Z,23.95
2023-04-20T18:05:39.093Z,28.50
2023-04-20T18:11:07.538Z,22.08
2023-04-20T18:16:34.900Z,24.02
2023-04-20T18:22:02.446Z,35.00
2023-04-20T18:27:30.385Z,21.70
2023-04-20T18:32:58.295Z,22.63
2023-04-20T18:38:25.875Z,24.85
2023-04-20T18:43:54.146Z,22.92
2023-04-20T18:49:22.006Z,26.27
2023-04-20T18:54:49.065Z,24.20
2023-04-20T19:00:16.683Z,24.65
2023-04-20T19:05:44.041Z,24.55
2023-04-20T19:11:12.266Z,23.65
2023-04-20T19:16:39.875Z,25.85
2023-04-20T19:22:07.195Z,28.40
2023-04-20T19:27:34.954Z,27.77
2023-04-20T19:33:07.408Z,29.63
2023-04-20T19:38:37.697Z,26.42
2023-04-20T19:44:07.169Z,27.20
2023-04-20T19:49:35.503Z,26.35
2023-04-20T19:55:04.894Z,29.65
2023-04-20T20:00:32.345Z,34.85
2023-04-20T20:06:00.928Z,29.55
2023-04-20T20:11:28.766Z,27.95
2023-04-20T20:16:58.830Z,26.73
2023-04-20T20:22:27.404Z,30.85
2023-04-20T20:27:55.145Z,30.67
2023-04-20T20:33:22.547Z,27.23
2023-04-20T20:38:54.278Z,30.77
2023-04-20T20:44:22.407Z,28.10
2023-04-20T20:49:50.334Z,42.38
2023-04-20T20:55:18.399Z,37.03
2023-04-20T21:00:47.594Z,32.50
2023-04-20T21:06:16.396Z,33.47
2023-04-20T21:11:44.018Z,28.83
2023-04-20T21:17:11.279Z,36.13
2023-04-20T21:22:38.697Z,33.10
2023-04-20T21:28:06.140Z,39.55
2023-04-20T21:33:36.515Z,32.97
2023-04-20T21:39:04.264Z,34.60
2023-04-20T21:44:31.440Z,40.40
2023-04-20T21:49:58.277Z,30.88
2023-04-20T21:55:25.694Z,39.92
2023-04-20T22:00:53.450Z,41.53
2023-04-20T22:06:20.729Z,46.05
2023-04-20T22:11:50.158Z,44.38
2023-04-20T22:17:17.958Z,50.80
2023-04-20T22:22:46.745Z,48.92
2023-04-20T22:28:14.679Z,50.58
2023-04-20T22:33:42.593Z,58.08
2023-04-20T22:39:09.890Z,71.50
2023-04-20T22:44:37.452Z,65.32
2023-04-20T22:50:06.278Z,62.05
2023-04-20T22:55:33.374Z,63.88
2023-04-20T23:01:01.142Z,62.78
2023-04-20T23:06:29.902Z,52.20
2023-04-20T23:12:00.068Z,50.88
2023-04-20T23:17:29.048Z,50.42
2023-04-20T23:22:56.835Z,50.08
2023-04-20T23:28:24.339Z,55.95
2023-04-20T23:33:51.835Z,53.40
2023-04-20T23:39:20.979Z,54.08
2023-04-20T23:44:48.663Z,53.35
2023-04-20T23:50:16.088Z,54.63
2023-04-20T23:55:48.423Z,51.65
